sensor_id;sensor_type;location;lat;lon;timestamp;pressure;altitude;pressure_sealevel;temperature;humidity
44765;BME280;30484;52.382;5.260;2023-04-04T00:00:54;103189.63;;;6.88;100.00
44765;BME280;30484;52.382;5.260;2023-04-04T00:03:23;103180.78;;;6.90;100.00
44765;BME280;30484;52.382;5.260;2023-04-04T00:05:51;103193.16;;;6.81;100.00
44765;BME280;30484;52.382;5.260;2023-04-04T00:08:20;103189.63;;;6.88;100.00
44765;BME280;30484;52.382;5.260;2023-04-04T00:10:49;103194.06;;;6.86;100.00
44765;BME280;30484;52.382;5.260;2023-04-04T00:13:17;103184.31;;;6.82;100.00
44765;BME280;30484;52.382;5.260;2023-04-04T00:15:45;103171.00;;;6.76;100.00
44765;BME280;30484;52.382;5.260;2023-04-04T00:18:17;103175.41;;;6.73;100.00
44765;BME280;30484;52.382;5.260;2023-04-04T00:20:46;103177.22;;;6.81;100.00
44765;BME280;30484;52.382;5.260;2023-04-04T00:23:14;103167.44;;;6.69;100.00
44765;BME280;30484;52.382;5.260;2023-04-04T00:25:47;103172.75;;;6.67;100.00
44765;BME280;30484;52.382;5.260;2023-04-04T00:28:16;103160.28;;;6.51;100.00
44765;BME280;30484;52.382;5.260;2023-04-04T00:30:45;103171.81;;;6.59;100.00
44765;BME280;30484;52.382;5.260;2023-04-04T00:33:14;103165.59;;;6.51;100.00
44765;BME280;30484;52.382;5.260;2023-04-04T00:35:44;103178.91;;;6.59;100.00
44765;BME280;30484;52.382;5.260;2023-04-04T00:38:12;103169.16;;;6.59;100.00
44765;BME280;30484;52.382;5.260;2023-04-04T00:40:42;103170.03;;;6.47;100.00
44765;BME280;30484;52.382;5.260;2023-04-04T00:43:10;103163.81;;;6.50;100.00
44765;BME280;30484;52.382;5.260;2023-04-04T00:45:39;103170.88;;;6.43;100.00
44765;BME280;30484;52.382;5.260;2023-04-04T00:48:08;103162.84;;;6.34;100.00
44765;BME280;30484;52.382;5.260;2023-04-04T00:50:36;103163.72;;;6.30;100.00
44765;BME280;30484;52.382;5.260;2023-04-04T00:53:06;103152.22;;;6.28;100.00
44765;BME280;30484;52.382;5.260;2023-04-04T00:55:36;103157.53;;;6.29;100.00
44765;BME280;30484;52.382;5.260;2023-04-04T00:58:05;103161.06;;;6.27;100.00
44765;BME280;30484;52.382;5.260;2023-04-04T01:00:35;103156.59;;;6.24;100.00
44765;BME280;30484;52.382;5.260;2023-04-04T01:03:04;103152.19;;;6.21;100.00
44765;BME280;30484;52.382;5.260;2023-04-04T01:05:36;103140.66;;;6.12;100.00
44765;BME280;30484;52.382;5.260;2023-04-04T01:08:06;103136.19;;;6.03;100.00
44765;BME280;30484;52.382;5.260;2023-04-04T01:10:34;103149.47;;;6.12;100.00
44765;BME280;30484;52.382;5.260;2023-04-04T01:13:03;103149.44;;;6.04;100.00
44765;BME280;30484;52.382;5.260;2023-04-04T01:15:32;103158.25;;;5.97;100.00
44765;BME280;30484;52.382;5.260;2023-04-04T01:18:01;103151.97;;;5.89;100.00
44765;BME280;30484;52.382;5.260;2023-04-04T01:20:33;103158.16;;;5.91;100.00
44765;BME280;30484;52.382;5.260;2023-04-04T01:23:05;103163.44;;;5.86;100.00
44765;BME280;30484;52.382;5.260;2023-04-04T01:25:36;103158.13;;;5.82;100.00
44765;BME280;30484;52.382;5.260;2023-04-04T01:28:04;103155.44;;;5.79;100.00
44765;BME280;30484;52.382;5.260;2023-04-04T01:30:35;103154.50;;;5.74;100.00
44765;BME280;30484;52.382;5.260;2023-04-04T01:33:12;103150.03;;;5.66;100.00
44765;BME280;30484;52.382;5.260;2023-04-04T01:35:48;103160.56;;;5.57;100.00
44765;BME280;30484;52.382;5.260;2023-04-04T01:38:23;103147.22;;;5.45;100.00
44765;BME280;30484;52.382;5.260;2023-04-04T01:41:06;103156.16;;;5.56;100.00
44765;BME280;30484;52.382;5.260;2023-04-04T01:43:34;103163.16;;;5.48;100.00
44765;BME280;30484;52.382;5.260;2023-04-04T01:46:04;103156.09;;;5.50;100.00
44765;BME280;30484;52.382;5.260;2023-04-04T01:48:33;103159.69;;;5.55;100.00
44765;BME280;30484;52.382;5.260;2023-04-04T01:51:01;103157.00;;;5.49;100.00
44765;BME280;30484;52.382;5.260;2023-04-04T01:53:30;103154.31;;;5.47;100.00
44765;BME280;30484;52.382;5.260;2023-04-04T01:56:00;103159.53;;;5.36;100.00
44765;BME280;30484;52.382;5.260;2023-04-04T01:58:28;103160.47;;;5.40;100.00
44765;BME280;30484;52.382;5.260;2023-04-04T02:00:56;103158.59;;;5.31;100.00
44765;BME280;30484;52.382;5.260;2023-04-04T02:03:25;103159.56;;;5.41;100.00
44765;BME280;30484;52.382;5.260;2023-04-04T02:05:53;103164.75;;;5.27;100.00
44765;BME280;30484;52.382;5.260;2023-04-04T02:08:22;103162.13;;;5.32;100.00
44765;BME280;30484;52.382;5.260;2023-04-04T02:10:50;103159.47;;;5.27;100.00
44765;BME280;30484;52.382;5.260;2023-04-04T02:13:20;103155.00;;;5.25;100.00
44765;BME280;30484;52.382;5.260;2023-04-04T02:15:50;103152.28;;;5.17;100.00
44765;BME280;30484;52.382;5.260;2023-04-04T02:18:18;103140.84;;;5.24;100.00
44765;BME280;30484;52.382;5.260;2023-04-04T02:20:54;103147.06;;;5.23;100.00
44765;BME280;30484;52.382;5.260;2023-04-04T02:23:23;103149.66;;;5.20;100.00
44765;BME280;30484;52.382;5.260;2023-04-04T02:25:52;103159.34;;;5.18;100.00
44765;BME280;30484;52.382;5.260;2023-04-04T02:28:22;103155.75;;;5.13;100.00
44765;BME280;30484;52.382;5.260;2023-04-04T02:30:50;103154.03;;;5.15;100.00
44765;BME280;30484;52.382;5.260;2023-04-04T02:33:18;103151.34;;;5.12;100.00
44765;BME280;30484;52.382;5.260;2023-04-04T02:35:48;103152.25;;;5.14;100.00
44765;BME280;30484;52.382;5.260;2023-04-04T02:38:16;103148.75;;;5.19;100.00
44765;BME280;30484;52.382;5.260;2023-04-04T02:40:45;103146.03;;;5.10;100.00
44765;BME280;30484;52.382;5.260;2023-04-04T02:43:13;103144.28;;;5.12;100.00
44765;BME280;30484;52.382;5.260;2023-04-04T02:45:43;103146.88;;;5.05;100.00
44765;BME280;30484;52.382;5.260;2023-04-04T02:48:11;103147.75;;;5.05;100.00
44765;BME280;30484;52.382;5.260;2023-04-04T02:50:40;103152.06;;;4.95;100.00
44765;BME280;30484;52.382;5.260;2023-04-04T02:53:09;103150.28;;;4.94;100.00
44765;BME280;30484;52.382;5.260;2023-04-04T02:55:37;103151.19;;;4.96;100.00
44765;BME280;30484;52.382;5.260;2023-04-04T02:58:05;103147.56;;;4.87;100.00
44765;BME280;30484;52.382;5.260;2023-04-04T03:00:34;103147.56;;;4.88;100.00
44765;BME280;30484;52.382;5.260;2023-04-04T03:03:03;103139.63;;;4.88;100.00
44765;BME280;30484;52.382;5.260;2023-04-04T03:05:32;103143.16;;;4.90;100.00
44765;BME280;30484;52.382;5.260;2023-04-04T03:08:00;103137.66;;;4.69;100.00
44765;BME280;30484;52.382;5.260;2023-04-04T03:10:30;103134.28;;;4.82;100.00
44765;BME280;30484;52.382;5.260;2023-04-04T03:12:59;103125.34;;;4.72;100.00
44765;BME280;30484;52.382;5.260;2023-04-04T03:15:27;103120.06;;;4.74;100.00
44765;BME280;30484;52.382;5.260;2023-04-04T03:17:56;103118.25;;;4.70;100.00
44765;BME280;30484;52.382;5.260;2023-04-04T03:20:26;103130.63;;;4.71;100.00
44765;BME280;30484;52.382;5.260;2023-04-04T03:22:54;103124.31;;;4.59;100.00
44765;BME280;30484;52.382;5.260;2023-04-04T03:25:23;103126.16;;;4.65;100.00
44765;BME280;30484;52.382;5.260;2023-04-04T03:27:52;103121.69;;;4.61;100.00
44765;BME280;30484;52.382;5.260;2023-04-04T03:30:20;103131.34;;;4.57;100.00
44765;BME280;30484;52.382;5.260;2023-04-04T03:32:49;103120.81;;;4.62;100.00
44765;BME280;30484;52.382;5.260;2023-04-04T03:35:18;103123.41;;;4.59;100.00
44765;BME280;30484;52.382;5.260;2023-04-04T03:37:48;103125.13;;;4.54;100.00
44765;BME280;30484;52.382;5.260;2023-04-04T03:40:17;103120.72;;;4.56;100.00
44765;BME280;30484;52.382;5.260;2023-04-04T03:42:45;103108.34;;;4.53;100.00
44765;BME280;30484;52.382;5.260;2023-04-04T03:45:14;103128.66;;;4.56;100.00
44765;BME280;30484;52.382;5.260;2023-04-04T03:47:42;103133.94;;;4.54;100.00
44765;BME280;30484;52.382;5.260;2023-04-04T03:50:11;103124.16;;;4.47;100.00
44765;BME280;30484;52.382;5.260;2023-04-04T03:52:39;103125.88;;;4.42;100.00
44765;BME280;30484;52.382;5.260;2023-04-04T03:55:09;103124.97;;;4.40;100.00
44765;BME280;30484;52.382;5.260;2023-04-04T03:57:38;103128.47;;;4.39;100.00
44765;BME280;30484;52.382;5.260;2023-04-04T04:00:31;103132.06;;;4.42;100.00
44765;BME280;30484;52.382;5.260;2023-04-04T04:02:59;103134.53;;;4.28;100.00
44765;BME280;30484;52.382;5.260;2023-04-04T04:05:30;103124.09;;;4.39;100.00
44765;BME280;30484;52.382;5.260;2023-04-04T04:07:58;103139.06;;;4.39;100.00
44765;BME280;30484;52.382;5.260;2023-04-04T04:10:29;103132.84;;;4.34;100.00
44765;BME280;30484;52.382;5.260;2023-04-04T04:12:58;103136.34;;;4.32;100.00
44765;BME280;30484;52.382;5.260;2023-04-04T04:15:27;103141.53;;;4.23;100.00
44765;BME280;30484;52.382;5.260;2023-04-04T04:17:55;103140.59;;;4.20;100.00
44765;BME280;30484;52.382;5.260;2023-04-04T04:20:25;103137.97;;;4.21;100.00
44765;BME280;30484;52.382;5.260;2023-04-04T04:22:55;103138.91;;;4.25;100.00
44765;BME280;30484;52.382;5.260;2023-04-04T04:25:24;103139.78;;;4.25;100.00
44765;BME280;30484;52.382;5.260;2023-04-04T04:27:56;103140.59;;;4.21;100.00
44765;BME280;30484;52.382;5.260;2023-04-04T04:30:25;103132.56;;;4.12;100.00
44765;BME280;30484;52.382;5.260;2023-04-04T04:32:54;103138.91;;;4.26;100.00
44765;BME280;30484;52.382;5.260;2023-04-04T04:35:24;103135.31;;;4.21;100.00
44765;BME280;30484;52.382;5.260;2023-04-04T04:37:55;103141.34;;;4.11;100.00
44765;BME280;30484;52.382;5.260;2023-04-04T04:40:24;103137.06;;;4.19;100.00
44765;BME280;30484;52.382;5.260;2023-04-04T04:42:55;103138.88;;;4.23;100.00
44765;BME280;30484;52.382;5.260;2023-04-04T04:45:24;103142.38;;;4.22;100.00
44765;BME280;30484;52.382;5.260;2023-04-04T04:47:53;103136.13;;;4.17;100.00
44765;BME280;30484;52.382;5.260;2023-04-04T04:50:23;103141.31;;;4.06;100.00
44765;BME280;30484;52.382;5.260;2023-04-04T04:52:52;103140.50;;;4.12;100.00
44765;BME280;30484;52.382;5.260;2023-04-04T04:55:20;103130.78;;;4.12;100.00
44765;BME280;30484;52.382;5.260;2023-04-04T04:57:49;103141.31;;;4.08;100.00
44765;BME280;30484;52.382;5.260;2023-04-04T05:00:20;103137.72;;;4.04;100.00
44765;BME280;30484;52.382;5.260;2023-04-04T05:02:54;103137.66;;;3.98;100.00
44765;BME280;30484;52.382;5.260;2023-04-04T05:05:23;103138.66;;;4.08;100.00
44765;BME280;30484;52.382;5.260;2023-04-04T05:07:51;103131.59;;;4.07;100.00
44765;BME280;30484;52.382;5.260;2023-04-04T05:10:22;103136.88;;;4.07;100.00
44765;BME280;30484;52.382;5.260;2023-04-04T05:12:51;103145.72;;;4.09;100.00
44765;BME280;30484;52.382;5.260;2023-04-04T05:15:23;103142.13;;;4.04;100.00
44765;BME280;30484;52.382;5.260;2023-04-04T05:17:55;103150.94;;;4.03;100.00
44765;BME280;30484;52.382;5.260;2023-04-04T05:20:24;103143.94;;;4.05;100.00
44765;BME280;30484;52.382;5.260;2023-04-04T05:22:53;103151.81;;;4.03;100.00
44765;BME280;30484;52.382;5.260;2023-04-04T05:25:22;103157.16;;;4.05;100.00
44765;BME280;30484;52.382;5.260;2023-04-04T05:27:51;103155.41;;;4.08;100.00
44765;BME280;30484;52.382;5.260;2023-04-04T05:30:26;103146.59;;;4.06;100.00
44765;BME280;30484;52.382;5.260;2023-04-04T05:32:55;103148.31;;;4.04;100.00
44765;BME280;30484;52.382;5.260;2023-04-04T05:35:23;103143.84;;;4.02;100.00
44765;BME280;30484;52.382;5.260;2023-04-04T05:37:53;103151.00;;;4.09;100.00
44765;BME280;30484;52.382;5.260;2023-04-04T05:40:21;103154.63;;;4.14;100.00
44765;BME280;30484;52.382;5.260;2023-04-04T05:42:54;103149.31;;;4.12;100.00
44765;BME280;30484;52.382;5.260;2023-04-04T05:45:25;103151.09;;;4.12;100.00
44765;BME280;30484;52.382;5.260;2023-04-04T05:47:56;103138.72;;;4.11;100.00
44765;BME280;30484;52.382;5.260;2023-04-04T05:50:25;103137.94;;;4.20;100.00
44765;BME280;30484;52.382;5.260;2023-04-04T05:52:54;103140.63;;;4.24;100.00
44765;BME280;30484;52.382;5.260;2023-04-04T05:55:25;103147.75;;;4.28;100.00
44765;BME280;30484;52.382;5.260;2023-04-04T05:57:55;103144.34;;;4.37;100.00
44765;BME280;30484;52.382;5.260;2023-04-04T06:00:28;103139.06;;;4.40;100.00
44765;BME280;30484;52.382;5.260;2023-04-04T06:02:57;103132.09;;;4.45;100.00
44765;BME280;30484;52.382;5.260;2023-04-04T06:05:25;103133.03;;;4.51;100.00
44765;BME280;30484;52.382;5.260;2023-04-04T06:07:55;103126.66;;;4.35;100.00
44765;BME280;30484;52.382;5.260;2023-04-04T06:10:25;103136.56;;;4.49;100.00
44765;BME280;30484;52.382;5.260;2023-04-04T06:12:54;103146.63;;;4.83;100.00
44765;BME280;30484;52.382;5.260;2023-04-04T06:15:23;103151.91;;;4.83;100.00
44765;BME280;30484;52.382;5.260;2023-04-04T06:17:53;103150.41;;;5.07;100.00
44765;BME280;30484;52.382;5.260;2023-04-04T06:20:22;103156.72;;;5.19;100.00
44765;BME280;30484;52.382;5.260;2023-04-04T06:22:51;103158.72;;;5.45;100.00
44765;BME280;30484;52.382;5.260;2023-04-04T06:25:20;103150.88;;;5.59;100.00
44765;BME280;30484;52.382;5.260;2023-04-04T06:27:48;103159.72;;;5.63;100.00
44765;BME280;30484;52.382;5.260;2023-04-04T06:30:17;103161.47;;;5.58;100.00
44765;BME280;30484;52.382;5.260;2023-04-04T06:32:46;103148.44;;;5.90;100.00
44765;BME280;30484;52.382;5.260;2023-04-04T06:35:17;103158.25;;;5.99;100.00
44765;BME280;30484;52.382;5.260;2023-04-04T06:37:46;103160.16;;;6.20;100.00
44765;BME280;30484;52.382;5.260;2023-04-04T06:40:15;103160.94;;;6.05;100.00
44765;BME280;30484;52.382;5.260;2023-04-04T06:42:47;103159.41;;;6.53;100.00
44765;BME280;30484;52.382;5.260;2023-04-04T06:45:21;103137.34;;;6.76;100.00
44765;BME280;30484;52.382;5.260;2023-04-04T06:47:51;103143.28;;;6.12;100.00
44765;BME280;30484;52.382;5.260;2023-04-04T06:50:22;103170.97;;;6.63;100.00
44765;BME280;30484;52.382;5.260;2023-04-04T06:52:52;103161.28;;;6.85;100.00
44765;BME280;30484;52.382;5.260;2023-04-04T06:55:22;103158.69;;;7.36;100.00
44765;BME280;30484;52.382;5.260;2023-04-04T06:57:50;103155.16;;;7.30;100.00
44765;BME280;30484;52.382;5.260;2023-04-04T07:00:21;103167.59;;;7.55;100.00
44765;BME280;30484;52.382;5.260;2023-04-04T07:02:55;103168.44;;;7.85;100.00
44765;BME280;30484;52.382;5.260;2023-04-04T07:05:27;103175.53;;;7.86;100.00
44765;BME280;30484;52.382;5.260;2023-04-04T07:07:57;103173.69;;;8.24;100.00
44765;BME280;30484;52.382;5.260;2023-04-04T07:10:26;103177.16;;;8.48;100.00
44765;BME280;30484;52.382;5.260;2023-04-04T07:12:54;103175.50;;;8.11;100.00
44765;BME280;30484;52.382;5.260;2023-04-04T07:15:23;103171.84;;;8.54;100.00
44765;BME280;30484;52.382;5.260;2023-04-04T07:17:52;103170.91;;;8.62;100.00
44765;BME280;30484;52.382;5.260;2023-04-04T07:20:30;103165.59;;;8.61;100.00
44765;BME280;30484;52.382;5.260;2023-04-04T07:22:58;103176.03;;;8.95;100.00
44765;BME280;30484;52.382;5.260;2023-04-04T07:25:27;103167.22;;;8.87;100.00
44765;BME280;30484;52.382;5.260;2023-04-04T07:27:57;103170.00;;;8.62;100.00
44765;BME280;30484;52.382;5.260;2023-04-04T07:30:39;103159.06;;;9.11;100.00
44765;BME280;30484;52.382;5.260;2023-04-04T07:33:09;103151.66;;;9.52;100.00
44765;BME280;30484;52.382;5.260;2023-04-04T07:35:41;103159.81;;;9.32;100.00
44765;BME280;30484;52.382;5.260;2023-04-04T07:38:19;103154.59;;;9.13;100.00
44765;BME280;30484;52.382;5.260;2023-04-04T07:40:49;103161.72;;;10.12;100.00
44765;BME280;30484;52.382;5.260;2023-04-04T07:43:18;103173.03;;;10.33;100.00
44765;BME280;30484;52.382;5.260;2023-04-04T07:45:48;103171.75;;;10.69;100.00
44765;BME280;30484;52.382;5.260;2023-04-04T07:48:18;103164.94;;;10.45;100.00
44765;BME280;30484;52.382;5.260;2023-04-04T07:50:50;103157.75;;;10.47;100.00
44765;BME280;30484;52.382;5.260;2023-04-04T07:53:20;103161.59;;;10.22;100.00
44765;BME280;30484;52.382;5.260;2023-04-04T07:55:49;103154.91;;;9.80;100.00
44765;BME280;30484;52.382;5.260;2023-04-04T07:58:18;103165.97;;;10.32;100.00
44765;BME280;30484;52.382;5.260;2023-04-04T08:00:51;103158.88;;;10.28;100.00
44765;BME280;30484;52.382;5.260;2023-04-04T08:03:20;103160.28;;;10.60;100.00
44765;BME280;30484;52.382;5.260;2023-04-04T08:05:51;103159.66;;;11.04;100.00
44765;BME280;30484;52.382;5.260;2023-04-04T08:08:20;103156.47;;;11.37;100.00
44765;BME280;30484;52.382;5.260;2023-04-04T08:10:49;103162.06;;;11.21;100.00
44765;BME280;30484;52.382;5.260;2023-04-04T08:13:18;103150.88;;;11.51;100.00
44765;BME280;30484;52.382;5.260;2023-04-04T08:15:48;103142.97;;;11.45;100.00
44765;BME280;30484;52.382;5.260;2023-04-04T08:18:18;103145.53;;;11.51;100.00
44765;BME280;30484;52.382;5.260;2023-04-04T08:20:46;103158.16;;;11.92;100.00
44765;BME280;30484;52.382;5.260;2023-04-04T08:23:24;103154.34;;;11.57;100.00
44765;BME280;30484;52.382;5.260;2023-04-04T08:25:52;103154.19;;;11.65;100.00
44765;BME280;30484;52.382;5.260;2023-04-04T08:28:21;103149.78;;;11.63;100.00
44765;BME280;30484;52.382;5.260;2023-04-04T08:30:51;103143.00;;;11.43;100.00
44765;BME280;30484;52.382;5.260;2023-04-04T08:33:21;103137.25;;;12.15;100.00
44765;BME280;30484;52.382;5.260;2023-04-04T08:36:03;103136.50;;;12.06;100.00
44765;BME280;30484;52.382;5.260;2023-04-04T08:38:36;103132.94;;;12.06;100.00
44765;BME280;30484;52.382;5.260;2023-04-04T08:41:06;103131.56;;;12.30;100.00
44765;BME280;30484;52.382;5.260;2023-04-04T08:43:38;103138.38;;;12.03;100.00
44765;BME280;30484;52.382;5.260;2023-04-04T08:46:09;103133.59;;;11.16;99.01
44765;BME280;30484;52.382;5.260;2023-04-04T08:48:40;103132.22;;;11.98;100.00
44765;BME280;30484;52.382;5.260;2023-04-04T08:51:11;103125.88;;;12.44;99.98
44765;BME280;30484;52.382;5.260;2023-04-04T08:53:47;103134.16;;;12.35;97.53
44765;BME280;30484;52.382;5.260;2023-04-04T08:56:18;103136.38;;;12.95;99.79
44765;BME280;30484;52.382;5.260;2023-04-04T08:58:47;103129.41;;;12.88;93.60
44765;BME280;30484;52.382;5.260;2023-04-04T09:01:17;103141.81;;;12.92;91.10
44765;BME280;30484;52.382;5.260;2023-04-04T09:03:46;103141.81;;;13.30;94.15
44765;BME280;30484;52.382;5.260;2023-04-04T09:06:27;103149.69;;;13.38;88.44
44765;BME280;30484;52.382;5.260;2023-04-04T09:08:59;103143.84;;;13.56;83.43
44765;BME280;30484;52.382;5.260;2023-04-04T09:11:31;103140.78;;;13.72;81.26
44765;BME280;30484;52.382;5.260;2023-04-04T09:14:05;103130.63;;;13.83;82.45
44765;BME280;30484;52.382;5.260;2023-04-04T09:16:34;103131.34;;;13.90;80.72
44765;BME280;30484;52.382;5.260;2023-04-04T09:19:04;103128.19;;;13.74;79.79
44765;BME280;30484;52.382;5.260;2023-04-04T09:21:36;103129.22;;;14.01;80.54
44765;BME280;30484;52.382;5.260;2023-04-04T09:24:12;103133.06;;;14.24;72.71
44765;BME280;30484;52.382;5.260;2023-04-04T09:26:48;103132.50;;;13.45;76.63
44765;BME280;30484;52.382;5.260;2023-04-04T09:29:18;103139.22;;;14.27;84.22
44765;BME280;30484;52.382;5.260;2023-04-04T09:31:47;103126.84;;;14.22;73.38
44765;BME280;30484;52.382;5.260;2023-04-04T09:34:20;103127.16;;;13.78;73.14
44765;BME280;30484;52.382;5.260;2023-04-04T09:36:50;103135.25;;;13.76;71.73
44765;BME280;30484;52.382;5.260;2023-04-04T09:39:22;103132.19;;;14.53;77.90
44765;BME280;30484;52.382;5.260;2023-04-04T09:41:51;103122.94;;;14.63;75.64
44765;BME280;30484;52.382;5.260;2023-04-04T09:44:23;103125.56;;;14.65;73.73
44765;BME280;30484;52.382;5.260;2023-04-04T09:47:24;103120.28;;;13.68;75.77
44765;BME280;30484;52.382;5.260;2023-04-04T09:49:58;103124.22;;;13.18;75.87
44765;BME280;30484;52.382;5.260;2023-04-04T09:52:33;103126.56;;;13.67;77.83
44765;BME280;30484;52.382;5.260;2023-04-04T09:55:07;103118.84;;;13.54;75.74
44765;BME280;30484;52.382;5.260;2023-04-04T09:57:37;103112.56;;;14.20;73.71
44765;BME280;30484;52.382;5.260;2023-04-04T10:00:19;103102.97;;;14.71;74.91
44765;BME280;30484;52.382;5.260;2023-04-04T10:02:48;103111.88;;;14.43;71.97
44765;BME280;30484;52.382;5.260;2023-04-04T10:05:19;103101.72;;;14.23;71.37
44765;BME280;30484;52.382;5.260;2023-04-04T10:07:56;103114.75;;;14.68;72.05
44765;BME280;30484;52.382;5.260;2023-04-04T10:10:28;103113.84;;;14.96;69.21
44765;BME280;30484;52.382;5.260;2023-04-04T10:13:00;103113.56;;;15.05;73.48
44765;BME280;30484;52.382;5.260;2023-04-04T10:15:34;103116.78;;;14.28;65.50
44765;BME280;30484;52.382;5.260;2023-04-04T10:18:05;103103.81;;;15.01;65.32
44765;BME280;30484;52.382;5.260;2023-04-04T10:20:36;103114.88;;;14.32;68.46
44765;BME280;30484;52.382;5.260;2023-04-04T10:23:05;103110.44;;;15.44;72.72
44765;BME280;30484;52.382;5.260;2023-04-04T10:25:35;103105.72;;;15.51;69.65
44765;BME280;30484;52.382;5.260;2023-04-04T10:28:05;103097.25;;;15.10;66.57
44765;BME280;30484;52.382;5.260;2023-04-04T10:30:42;103088.47;;;14.17;67.77
44765;BME280;30484;52.382;5.260;2023-04-04T10:33:42;103088.47;;;15.03;67.13
44765;BME280;30484;52.382;5.260;2023-04-04T10:36:20;103095.63;;;15.31;67.78
44765;BME280;30484;52.382;5.260;2023-04-04T10:39:00;103092.09;;;14.45;63.12
44765;BME280;30484;52.382;5.260;2023-04-04T10:41:32;103088.16;;;14.86;65.71
44765;BME280;30484;52.382;5.260;2023-04-04T10:44:16;103080.25;;;15.08;66.01
44765;BME280;30484;52.382;5.260;2023-04-04T10:46:46;103084.47;;;15.42;66.73
44765;BME280;30484;52.382;5.260;2023-04-04T10:49:19;103074.56;;;16.18;68.11
44765;BME280;30484;52.382;5.260;2023-04-04T10:51:49;103077.22;;;15.94;64.43
44765;BME280;30484;52.382;5.260;2023-04-04T10:54:24;103075.63;;;16.37;65.49
44765;BME280;30484;52.382;5.260;2023-04-04T10:56:57;103077.19;;;16.19;64.04
44765;BME280;30484;52.382;5.260;2023-04-04T10:59:31;103071.31;;;15.84;66.80
44765;BME280;30484;52.382;5.260;2023-04-04T11:02:02;103063.25;;;16.32;66.33
44765;BME280;30484;52.382;5.260;2023-04-04T11:04:37;103068.09;;;15.98;64.64
44765;BME280;30484;52.382;5.260;2023-04-04T11:07:18;103076.50;;;16.82;66.26
44765;BME280;30484;52.382;5.260;2023-04-04T11:09:55;103063.78;;;16.18;60.62
44765;BME280;30484;52.382;5.260;2023-04-04T11:12:30;103048.63;;;15.90;62.73
44765;BME280;30484;52.382;5.260;2023-04-04T11:15:08;103063.22;;;16.78;63.86
44765;BME280;30484;52.382;5.260;2023-04-04T11:17:59;103050.19;;;16.89;66.42
44765;BME280;30484;52.382;5.260;2023-04-04T11:20:43;103048.00;;;16.53;63.56
44765;BME280;30484;52.382;5.260;2023-04-04T11:23:17;103049.50;;;17.04;64.56
44765;BME280;30484;52.382;5.260;2023-04-04T11:25:51;103047.50;;;17.10;63.09
44765;BME280;30484;52.382;5.260;2023-04-04T11:28:43;103055.72;;;17.06;62.83
44765;BME280;30484;52.382;5.260;2023-04-04T11:31:30;103042.16;;;17.29;61.67
44765;BME280;30484;52.382;5.260;2023-04-04T11:34:03;103039.44;;;16.42;62.51
44765;BME280;30484;52.382;5.260;2023-04-04T11:36:51;103040.63;;;16.80;59.53
44765;BME280;30484;52.382;5.260;2023-04-04T11:39:28;103040.19;;;17.53;65.83
44765;BME280;30484;52.382;5.260;2023-04-04T11:42:05;103029.81;;;17.43;60.72
44765;BME280;30484;52.382;5.260;2023-04-04T11:47:29;103031.03;;;17.97;63.67
44765;BME280;30484;52.382;5.260;2023-04-04T11:50:00;103032.16;;;17.51;60.34
44765;BME280;30484;52.382;5.260;2023-04-04T11:52:33;103031.44;;;16.62;58.63
44765;BME280;30484;52.382;5.260;2023-04-04T11:55:12;103037.19;;;16.53;60.07
44765;BME280;30484;52.382;5.260;2023-04-04T11:57:41;103029.16;;;17.18;60.37
44765;BME280;30484;52.382;5.260;2023-04-04T12:00:26;103030.91;;;17.19;58.50
44765;BME280;30484;52.382;5.260;2023-04-04T12:02:57;103028.13;;;17.62;59.53
44765;BME280;30484;52.382;5.260;2023-04-04T12:05:26;103013.16;;;17.53;58.64
44765;BME280;30484;52.382;5.260;2023-04-04T12:07:57;103018.81;;;17.88;58.84
44765;BME280;30484;52.382;5.260;2023-04-04T12:10:29;103014.38;;;16.62;57.35
44765;BME280;30484;52.382;5.260;2023-04-04T12:13:04;103006.69;;;17.97;58.16
44765;BME280;30484;52.382;5.260;2023-04-04T12:15:42;102998.03;;;17.69;59.48
44765;BME280;30484;52.382;5.260;2023-04-04T12:18:20;102998.81;;;18.30;58.21
44765;BME280;30484;52.382;5.260;2023-04-04T12:20:50;102990.34;;;18.19;60.10
44765;BME280;30484;52.382;5.260;2023-04-04T12:23:19;102991.91;;;17.85;58.02
44765;BME280;30484;52.382;5.260;2023-04-04T12:25:47;102992.06;;;18.20;58.68
44765;BME280;30484;52.382;5.260;2023-04-04T12:28:21;102987.34;;;16.84;55.73
44765;BME280;30484;52.382;5.260;2023-04-04T12:30:54;102984.81;;;17.42;56.63
44765;BME280;30484;52.382;5.260;2023-04-04T12:33:26;102977.16;;;18.11;60.32
44765;BME280;30484;52.382;5.260;2023-04-04T12:35:55;102979.41;;;18.39;58.99
44765;BME280;30484;52.382;5.260;2023-04-04T12:38:24;102979.22;;;18.06;59.29
44765;BME280;30484;52.382;5.260;2023-04-04T12:40:56;102968.13;;;17.93;59.02
44765;BME280;30484;52.382;5.260;2023-04-04T12:43:27;102974.75;;;18.78;61.09
44765;BME280;30484;52.382;5.260;2023-04-04T12:45:59;102974.84;;;18.76;56.40
44765;BME280;30484;52.382;5.260;2023-04-04T12:48:28;102974.56;;;19.00;56.03
44765;BME280;30484;52.382;5.260;2023-04-04T12:50:59;102980.59;;;19.05;56.12
44765;BME280;30484;52.382;5.260;2023-04-04T12:53:31;102972.63;;;18.85;58.58
44765;BME280;30484;52.382;5.260;2023-04-04T12:56:03;102970.47;;;19.44;58.57
44765;BME280;30484;52.382;5.260;2023-04-04T12:58:32;102966.03;;;19.25;55.78
44765;BME280;30484;52.382;5.260;2023-04-04T13:01:05;102960.78;;;18.87;56.34
44765;BME280;30484;52.382;5.260;2023-04-04T13:03:34;102954.72;;;19.51;58.82
44765;BME280;30484;52.382;5.260;2023-04-04T13:06:11;102952.59;;;18.89;56.44
44765;BME280;30484;52.382;5.260;2023-04-04T13:08:49;102950.19;;;19.00;54.35
44765;BME280;30484;52.382;5.260;2023-04-04T13:11:18;102945.06;;;18.76;54.28
44765;BME280;30484;52.382;5.260;2023-04-04T13:13:47;102934.97;;;19.31;55.39